Strona główna
METAR-TAF:

METAR-TAF

Lotnisko :

Francis S. Gabreski Airport

Westhampton Beach, Nowy Jork, Stany Zjednoczone

Szerokość geograficzna: 40-51-03N, Długość geograficzna: 072-37-14W, wysokość: 20 m

Aktualna obserwacja pogody

Raport powstał 31 minut temu, godzina 06:33 UTC
Wiatr 4 kt od południe
Temperatura 4°C
Wilgotność 81%
Ciśnienie 1023 hPa
Widzialność: 16.1 km
Przerywane chmury na wysokości 2900 ft
Przerywane chmury na wysokości 3400 ft
Zachmurzenie całkowite na wysokości 8500 ft

METAR: KFOK 190633Z AUTO 19004KT 10SM BKN029 BKN034 OVC085 04/01 A3020 RMK AO2 T00390011

czas: 02:04 (07:04 UTC)


TAF: brakujący

Obserwacja i prognoza pogody dla ponad 4000 lotnisk (raport METAR i TAF).

Dostępne stacje oznaczono żółtymi i czerwonymi punktami na mapie.

Najedź kursorem aby zobaczyć nazwę stacji.

Kliknij aby zobaczyć obserwacje i prognozy pogody.

Aby zmienić mapę: kliknij na zielony przycisk z czarnym krzyżykiem, aby powiększyć; na zielony przycisk z myślnikiem, aby pomniejszyć; na zielone strzałki, aby przejść do map sąsiednich.


METAR-TAF: